createdAt,value
2019-04-27T00:00:46.029Z,100754.00
2019-04-27T00:03:17.038Z,100749.00
2019-04-27T00:05:50.776Z,100752.00
2019-04-27T00:08:21.784Z,100763.00
2019-04-27T00:11:08.482Z,100758.00
2019-04-27T00:13:40.409Z,100745.00
2019-04-27T00:16:13.405Z,100750.00
2019-04-27T00:19:03.902Z,100734.00
2019-04-27T00:21:37.532Z,100725.00
2019-04-27T00:24:06.903Z,100730.00
2019-04-27T00:26:36.594Z,100739.00
2019-04-27T00:29:06.036Z,100739.00
2019-04-27T00:31:35.889Z,100735.00
2019-04-27T00:34:06.504Z,100745.00
2019-04-27T00:36:37.542Z,100738.00
2019-04-27T00:39:15.446Z,100731.00
2019-04-27T00:41:45.287Z,100728.00
2019-04-27T00:44:14.661Z,100728.00
2019-04-27T00:46:44.072Z,100734.00
2019-04-27T00:49:13.826Z,100726.00
2019-04-27T00:51:43.449Z,100718.00
2019-04-27T00:54:13.604Z,100710.00
2019-04-27T00:56:53.431Z,100716.00
2019-04-27T00:59:30.302Z,100703.00
2019-04-27T01:02:17.424Z,100722.00
2019-04-27T01:04:47.226Z,100720.00
2019-04-27T01:07:16.593Z,100714.00
2019-04-27T01:09:46.100Z,100725.00
2019-04-27T01:12:15.665Z,100732.00
2019-04-27T01:14:45.218Z,100731.00
2019-04-27T01:17:14.652Z,100739.00
2019-04-27T01:19:44.042Z,100739.00
2019-04-27T01:22:13.596Z,100745.00
2019-04-27T01:24:42.963Z,100746.00
2019-04-27T01:27:23.103Z,100756.00
2019-04-27T01:29:54.252Z,100754.00
2019-04-27T01:32:23.647Z,100764.00
2019-04-27T01:34:54.161Z,100771.00
2019-04-27T01:37:23.542Z,100779.00
2019-04-27T01:39:52.940Z,100780.00
2019-04-27T01:42:22.335Z,100778.00
2019-04-27T01:44:51.778Z,100790.00
2019-04-27T01:47:21.154Z,100775.00
2019-04-27T01:49:50.896Z,100785.00
2019-04-27T01:52:20.276Z,100788.00
2019-04-27T01:54:49.680Z,100788.00
2019-04-27T01:57:19.477Z,100779.00
2019-04-27T01:59:49.119Z,100773.00
2019-04-27T02:02:20.907Z,100797.00
2019-04-27T02:05:08.951Z,100815.00
2019-04-27T02:07:39.028Z,100806.00
2019-04-27T02:10:10.347Z,100812.00
2019-04-27T02:12:39.820Z,100813.00
2019-04-27T02:15:10.675Z,100808.00
2019-04-27T02:17:40.340Z,100799.00
2019-04-27T02:20:11.590Z,100808.00
2019-04-27T02:22:41.045Z,100791.00
2019-04-27T02:25:14.546Z,100790.00
2019-04-27T02:27:45.623Z,100797.00
2019-04-27T02:30:33.407Z,100798.00
2019-04-27T02:33:22.566Z,100789.00
2019-04-27T02:35:51.922Z,100798.00
2019-04-27T02:38:22.544Z,100794.00
2019-04-27T02:40:56.320Z,100784.00
2019-04-27T02:43:42.496Z,100790.00
2019-04-27T02:46:11.889Z,100776.00
2019-04-27T02:48:55.622Z,100774.00
2019-04-27T02:51:13.991Z,100787.00
2019-04-27T02:54:01.863Z,100780.00
2019-04-27T02:56:31.239Z,100802.00
2019-04-27T03:01:45.654Z,100786.00
2019-04-27T03:04:10.070Z,100782.00
2019-04-27T03:06:40.079Z,100800.00
2019-04-27T03:09:10.413Z,100797.00
2019-04-27T03:11:39.905Z,100802.00
2019-04-27T03:14:34.756Z,100809.00
2019-04-27T03:17:02.596Z,100824.00
2019-04-27T03:19:36.688Z,100820.00
2019-04-27T03:22:09.631Z,100825.00
2019-04-27T03:24:59.999Z,100816.00
2019-04-27T03:27:31.417Z,100830.00
2019-04-27T03:30:01.318Z,100823.00
2019-04-27T03:32:31.788Z,100821.00
2019-04-27T03:35:03.174Z,100832.00
2019-04-27T03:37:32.522Z,100837.00
2019-04-27T03:40:02.431Z,100836.00
2019-04-27T03:42:37.082Z,100834.00
2019-04-27T03:45:10.483Z,100835.00
2019-04-27T03:47:40.777Z,100839.00
2019-04-27T03:50:13.619Z,100823.00
2019-04-27T03:53:02.323Z,100827.00
2019-04-27T03:55:33.325Z,100827.00
2019-04-27T03:58:11.773Z,100826.00
2019-04-27T04:00:39.870Z,100836.00
2019-04-27T04:03:10.691Z,100826.00
2019-04-27T04:05:40.126Z,100822.00
2019-04-27T04:08:10.706Z,100807.00
2019-04-27T04:10:42.007Z,100797.00
2019-04-27T04:13:15.393Z,100816.00
2019-04-27T04:15:52.114Z,100801.00
2019-04-27T04:18:22.163Z,100805.00
2019-04-27T04:20:51.547Z,100821.00
2019-04-27T04:23:20.920Z,100823.00
2019-04-27T04:25:50.331Z,100831.00
2019-04-27T04:28:20.174Z,100822.00
2019-04-27T04:30:50.301Z,100830.00
2019-04-27T04:33:20.558Z,100829.00
2019-04-27T04:35:50.280Z,100823.00
2019-04-27T04:38:20.761Z,100815.00
2019-04-27T04:40:51.863Z,100834.00
2019-04-27T04:43:23.946Z,100826.00
2019-04-27T04:45:54.980Z,100819.00
2019-04-27T04:48:24.358Z,100832.00
2019-04-27T04:50:53.743Z,100844.00
2019-04-27T04:53:23.407Z,100837.00
2019-04-27T04:55:52.863Z,100834.00
2019-04-27T04:58:22.239Z,100845.00
2019-04-27T05:00:51.637Z,100844.00
2019-04-27T05:03:21.835Z,100834.00
2019-04-27T05:05:51.434Z,100832.00
2019-04-27T05:08:20.829Z,100838.00
2019-04-27T05:10:50.208Z,100834.00
2019-04-27T05:13:19.582Z,100851.00
2019-04-27T05:15:48.986Z,100839.00
2019-04-27T05:18:19.169Z,100836.00
2019-04-27T05:20:50.430Z,100844.00
2019-04-27T05:23:19.816Z,100838.00
2019-04-27T05:25:49.422Z,100847.00
2019-04-27T05:28:18.893Z,100847.00
2019-04-27T05:30:49.015Z,100839.00
2019-04-27T05:33:18.886Z,100849.00
2019-04-27T05:35:49.144Z,100849.00
2019-04-27T05:38:19.392Z,100846.00
2019-04-27T05:40:50.007Z,100851.00
2019-04-27T05:43:21.204Z,100859.00
2019-04-27T05:46:35.503Z,100859.00
2019-04-27T05:49:05.974Z,100851.00
2019-04-27T05:51:36.878Z,100858.00
2019-04-27T05:54:03.459Z,100856.00
2019-04-27T05:56:32.846Z,100864.00
2019-04-27T05:59:02.320Z,100868.00
2019-04-27T06:01:31.725Z,100867.00
2019-04-27T06:04:01.362Z,100867.00
2019-04-27T06:06:30.743Z,100858.00
2019-04-27T06:09:00.132Z,100870.00
2019-04-27T06:11:29.540Z,100862.00
2019-04-27T06:13:59.388Z,100867.00
2019-04-27T06:16:29.564Z,100867.00
2019-04-27T06:18:59.507Z,100862.00
2019-04-27T06:21:29.561Z,100856.00
2019-04-27T06:23:59.072Z,100860.00
2019-04-27T06:26:30.101Z,100852.00
2019-04-27T06:28:59.695Z,100855.00
2019-04-27T06:31:29.701Z,100861.00
2019-04-27T06:33:59.799Z,100853.00
2019-04-27T06:36:29.199Z,100853.00
2019-04-27T06:38:58.981Z,100856.00
2019-04-27T06:41:29.535Z,100851.00
2019-04-27T06:43:59.345Z,100862.00
2019-04-27T06:46:29.027Z,100866.00
2019-04-27T06:48:59.321Z,100877.00
2019-04-27T06:51:28.993Z,100873.00
2019-04-27T06:53:59.473Z,100866.00
2019-04-27T06:56:28.935Z,100871.00
2019-04-27T06:58:59.709Z,100871.00
2019-04-27T07:01:29.936Z,100878.00
2019-04-27T07:03:59.841Z,100879.00
2019-04-27T07:06:29.417Z,100882.00
2019-04-27T07:08:59.759Z,100882.00
2019-04-27T07:11:29.695Z,100885.00
2019-04-27T07:13:59.498Z,100897.00
2019-04-27T07:16:29.377Z,100890.00
2019-04-27T07:18:59.415Z,100898.00
2019-04-27T07:21:29.212Z,100877.00
2019-04-27T07:23:59.628Z,100871.00
2019-04-27T07:26:30.309Z,100879.00
2019-04-27T07:29:00.193Z,100874.00
2019-04-27T07:31:31.818Z,100881.00
2019-04-27T07:34:00.754Z,100884.00
2019-04-27T07:36:30.130Z,100882.00
2019-04-27T07:38:59.948Z,100880.00
2019-04-27T07:41:29.393Z,100886.00
2019-04-27T07:44:00.417Z,100886.00
2019-04-27T07:46:31.769Z,100893.00
2019-04-27T07:49:01.339Z,100884.00
2019-04-27T07:51:33.778Z,100884.00
2019-04-27T07:54:01.941Z,100881.00
2019-04-27T07:56:31.326Z,100874.00
2019-04-27T07:59:00.754Z,100871.00
2019-04-27T08:01:30.159Z,100878.00
2019-04-27T08:03:59.563Z,100878.00
2019-04-27T08:06:29.104Z,100877.00
2019-04-27T08:08:59.314Z,100882.00
2019-04-27T08:11:29.169Z,100880.00
2019-04-27T08:13:58.938Z,100871.00
2019-04-27T08:16:29.054Z,100874.00
2019-04-27T08:19:00.027Z,100875.00
2019-04-27T08:21:29.463Z,100872.00
2019-04-27T08:23:59.125Z,100870.00
2019-04-27T08:26:30.127Z,100880.00
2019-04-27T08:29:05.571Z,100872.00
2019-04-27T08:31:39.410Z,100856.00
2019-04-27T08:34:10.437Z,100855.00
2019-04-27T08:36:39.813Z,100855.00
2019-04-27T08:39:09.513Z,100866.00
2019-04-27T08:41:39.497Z,100857.00
2019-04-27T08:44:09.806Z,100858.00
2019-04-27T08:46:39.231Z,100865.00
2019-04-27T08:49:10.110Z,100865.00
2019-04-27T08:51:41.539Z,100871.00
2019-04-27T08:54:11.470Z,100867.00
2019-04-27T08:56:40.865Z,100856.00
2019-04-27T08:59:10.286Z,100856.00
2019-04-27T09:01:39.816Z,100864.00
2019-04-27T09:04:11.265Z,100849.00
2019-04-27T09:06:41.984Z,100865.00
2019-04-27T09:09:29.560Z,100857.00
2019-04-27T09:12:00.872Z,100862.00
2019-04-27T09:14:31.887Z,100853.00
2019-04-27T09:17:05.638Z,100856.00
2019-04-27T09:19:45.608Z,100858.00
2019-04-27T09:22:16.543Z,100864.00
2019-04-27T09:24:46.325Z,100855.00
2019-04-27T09:27:17.352Z,100850.00
2019-04-27T09:29:47.446Z,100860.00
2019-04-27T09:32:16.826Z,100855.00
2019-04-27T09:34:46.673Z,100865.00
2019-04-27T09:37:16.197Z,100871.00
2019-04-27T09:39:46.085Z,100865.00
2019-04-27T09:42:16.782Z,100861.00
2019-04-27T09:44:47.674Z,100858.00
2019-04-27T09:47:17.115Z,100853.00
2019-04-27T09:49:46.503Z,100857.00
2019-04-27T09:52:24.367Z,100859.00
2019-04-27T09:54:48.160Z,100857.00
2019-04-27T09:57:17.868Z,100854.00
2019-04-27T09:59:47.351Z,100859.00
2019-04-27T10:02:16.794Z,100855.00
2019-04-27T10:04:46.308Z,100851.00
2019-04-27T10:07:16.575Z,100849.00
2019-04-27T10:09:47.523Z,100849.00
2019-04-27T10:12:17.008Z,100846.00
2019-04-27T10:14:47.766Z,100844.00
2019-04-27T10:17:17.251Z,100848.00
2019-04-27T10:19:46.634Z,100850.00
2019-04-27T10:22:16.125Z,100831.00
2019-04-27T10:24:45.470Z,100837.00
2019-04-27T10:27:16.130Z,100849.00
2019-04-27T10:29:46.731Z,100846.00
2019-04-27T10:32:16.508Z,100838.00
2019-04-27T10:34:45.909Z,100845.00
2019-04-27T10:37:16.066Z,100844.00
2019-04-27T10:39:46.069Z,100843.00
2019-04-27T10:42:15.945Z,100832.00
2019-04-27T10:44:46.173Z,100847.00
2019-04-27T10:47:15.983Z,100846.00
2019-04-27T10:49:48.051Z,100843.00
2019-04-27T10:52:18.033Z,100832.00
2019-04-27T10:54:47.465Z,100845.00
2019-04-27T10:57:16.841Z,100832.00
2019-04-27T10:59:47.334Z,100836.00
2019-04-27T11:02:16.784Z,100844.00
2019-04-27T11:04:53.971Z,100837.00
2019-04-27T11:07:26.050Z,100846.00
2019-04-27T11:09:55.414Z,100848.00
2019-04-27T11:12:24.804Z,100834.00
2019-04-27T11:14:54.205Z,100843.00
2019-04-27T11:17:23.586Z,100839.00
2019-04-27T11:19:52.959Z,100828.00
2019-04-27T11:22:22.355Z,100821.00
2019-04-27T11:24:51.752Z,100821.00
2019-04-27T11:27:21.160Z,100823.00
2019-04-27T11:29:50.977Z,100821.00
2019-04-27T11:32:20.345Z,100820.00
2019-04-27T11:35:03.319Z,100817.00
2019-04-27T11:37:35.625Z,100815.00
2019-04-27T11:40:09.547Z,100807.00
2019-04-27T11:42:38.925Z,100804.00
2019-04-27T11:45:10.448Z,100816.00
2019-04-27T11:47:40.019Z,100808.00
2019-04-27T11:50:11.239Z,100811.00
2019-04-27T11:52:40.709Z,100815.00
2019-04-27T11:55:13.675Z,100812.00
2019-04-27T11:57:43.062Z,100812.00
2019-04-27T12:00:16.612Z,100809.00
2019-04-27T12:02:46.669Z,100803.00
2019-04-27T12:05:17.275Z,100799.00
2019-04-27T12:07:47.878Z,100802.00
2019-04-27T12:10:18.645Z,100805.00
2019-04-27T12:12:48.025Z,100800.00
2019-04-27T12:15:18.613Z,100793.00
2019-04-27T12:17:48.105Z,100790.00
2019-04-27T12:20:18.055Z,100787.00
2019-04-27T12:22:47.475Z,100789.00
2019-04-27T12:25:17.114Z,100787.00
2019-04-27T12:27:50.811Z,100785.00
2019-04-27T12:30:21.832Z,100770.00
2019-04-27T12:32:51.798Z,100772.00
2019-04-27T12:35:21.183Z,100773.00
2019-04-27T12:37:50.551Z,100769.00
2019-04-27T12:40:19.937Z,100767.00
2019-04-27T12:42:49.321Z,100766.00
2019-04-27T12:45:18.688Z,100765.00
2019-04-27T12:47:48.062Z,100756.00
2019-04-27T12:50:18.059Z,100760.00
2019-04-27T12:52:49.075Z,100745.00
2019-04-27T12:55:29.643Z,100754.00
2019-04-27T12:58:03.299Z,100756.00
2019-04-27T13:00:36.915Z,100752.00
2019-04-27T13:03:06.284Z,100749.00
2019-04-27T13:05:37.147Z,100748.00
2019-04-27T13:08:06.619Z,100743.00
2019-04-27T13:10:35.994Z,100734.00
2019-04-27T13:13:06.310Z,100740.00
2019-04-27T13:15:36.329Z,100743.00
2019-04-27T13:18:05.771Z,100749.00
2019-04-27T13:20:35.932Z,100737.00
2019-04-27T13:23:07.208Z,100748.00
2019-04-27T13:25:38.519Z,100748.00
2019-04-27T13:28:07.899Z,100739.00
2019-04-27T13:30:37.967Z,100749.00
2019-04-27T13:33:07.341Z,100749.00
2019-04-27T13:35:36.718Z,100743.00
2019-04-27T13:38:06.100Z,100740.00
2019-04-27T13:40:37.119Z,100747.00
2019-04-27T13:43:10.955Z,100738.00
2019-04-27T13:45:54.059Z,100743.00
2019-04-27T13:48:30.742Z,100745.00
2019-04-27T13:51:01.753Z,100738.00
2019-04-27T13:53:31.136Z,100741.00
2019-04-27T13:56:02.171Z,100748.00
2019-04-27T13:58:31.532Z,100739.00
2019-04-27T14:01:00.903Z,100741.00
2019-04-27T14:03:30.373Z,100740.00
2019-04-27T14:06:01.094Z,100747.00
2019-04-27T14:08:31.604Z,100744.00
2019-04-27T14:11:01.358Z,100738.00
2019-04-27T14:13:30.704Z,100737.00
2019-04-27T14:16:00.069Z,100727.00
2019-04-27T14:18:29.457Z,100732.00
2019-04-27T14:20:59.271Z,100734.00
2019-04-27T14:23:30.440Z,100737.00
2019-04-27T14:26:00.408Z,100733.00
2019-04-27T14:28:29.895Z,100732.00
2019-04-27T14:30:59.289Z,100731.00
2019-04-27T14:33:28.833Z,100737.00
2019-04-27T14:35:59.419Z,100730.00
2019-04-27T14:38:29.003Z,100722.00
2019-04-27T14:40:59.388Z,100729.00
2019-04-27T14:43:28.854Z,100723.00
2019-04-27T14:45:58.401Z,100733.00
2019-04-27T14:48:29.548Z,100740.00
2019-04-27T14:50:59.156Z,100744.00
2019-04-27T14:53:28.741Z,100746.00
2019-04-27T14:55:58.690Z,100745.00
2019-04-27T14:58:28.471Z,100731.00
2019-04-27T15:00:58.569Z,100733.00
2019-04-27T15:03:28.029Z,100730.00
2019-04-27T15:05:57.682Z,100731.00
2019-04-27T15:08:27.063Z,100725.00
2019-04-27T15:10:56.782Z,100725.00
2019-04-27T15:13:26.235Z,100718.00
2019-04-27T15:15:55.588Z,100714.00
2019-04-27T15:18:29.577Z,100716.00
2019-04-27T15:20:58.545Z,100709.00
2019-04-27T15:23:30.882Z,100707.00
2019-04-27T15:26:00.454Z,100706.00
2019-04-27T15:28:32.046Z,100712.00
2019-04-27T15:31:03.430Z,100700.00
2019-04-27T15:33:54.440Z,100704.00
2019-04-27T15:36:23.538Z,100701.00
2019-04-27T15:38:58.501Z,100707.00
2019-04-27T15:41:48.527Z,100708.00
2019-04-27T15:44:18.777Z,100711.00
2019-04-27T15:46:48.222Z,100705.00
2019-04-27T15:49:18.013Z,100697.00
2019-04-27T15:51:50.666Z,100701.00
2019-04-27T15:54:22.275Z,100698.00
2019-04-27T15:56:50.039Z,100686.00
2019-04-27T16:02:11.828Z,100704.00
2019-04-27T16:04:38.119Z,100704.00
2019-04-27T16:07:08.460Z,100714.00
2019-04-27T16:09:38.791Z,100708.00
2019-04-27T16:12:12.625Z,100706.00
2019-04-27T16:14:44.048Z,100696.00
2019-04-27T16:17:11.740Z,100688.00
2019-04-27T16:19:46.755Z,100693.00
2019-04-27T16:22:12.653Z,100691.00
2019-04-27T16:24:42.354Z,100697.00
2019-04-27T16:27:11.734Z,100688.00
2019-04-27T16:29:41.095Z,100690.00
2019-04-27T16:32:11.500Z,100698.00
2019-04-27T16:34:41.336Z,100687.00
2019-04-27T16:37:14.027Z,100683.00
2019-04-27T16:39:45.565Z,100686.00
2019-04-27T16:42:15.459Z,100685.00
2019-04-27T16:44:49.479Z,100682.00
2019-04-27T16:47:17.562Z,100683.00
2019-04-27T16:49:48.322Z,100687.00
2019-04-27T16:52:19.310Z,100700.00
2019-04-27T16:54:56.966Z,100696.00
2019-04-27T16:57:21.978Z,100702.00
2019-04-27T16:59:57.760Z,100692.00
2019-04-27T17:02:25.094Z,100707.00
2019-04-27T17:04:55.621Z,100701.00
2019-04-27T17:07:24.637Z,100691.00
2019-04-27T17:09:57.180Z,100701.00
2019-04-27T17:12:29.829Z,100701.00
2019-04-27T17:15:15.829Z,100705.00
2019-04-27T17:17:48.695Z,100711.00
2019-04-27T17:20:21.196Z,100709.00
2019-04-27T17:22:50.237Z,100714.00
2019-04-27T17:25:23.233Z,100717.00
2019-04-27T17:27:53.119Z,100708.00
2019-04-27T17:30:23.353Z,100706.00
2019-04-27T17:32:59.123Z,100699.00
2019-04-27T17:35:28.557Z,100699.00
2019-04-27T17:37:59.615Z,100705.00
2019-04-27T17:40:29.820Z,100703.00
2019-04-27T17:43:06.588Z,100704.00
2019-04-27T17:45:36.231Z,100704.00
2019-04-27T17:48:06.849Z,100700.00
2019-04-27T17:50:34.822Z,100707.00
2019-04-27T17:53:04.722Z,100702.00
2019-04-27T17:55:34.104Z,100698.00
2019-04-27T17:58:05.092Z,100709.00
2019-04-27T18:03:12.569Z,100703.00
2019-04-27T18:05:43.772Z,100689.00
2019-04-27T18:08:13.487Z,100693.00
2019-04-27T18:10:44.616Z,100698.00
2019-04-27T18:13:13.987Z,100694.00
2019-04-27T18:15:45.800Z,100699.00
2019-04-27T18:18:22.868Z,100705.00
2019-04-27T18:20:51.888Z,100700.00
2019-04-27T18:23:22.987Z,100701.00
2019-04-27T18:26:12.696Z,100700.00
2019-04-27T18:28:45.759Z,100699.00
2019-04-27T18:31:17.853Z,100693.00
2019-04-27T18:33:47.632Z,100704.00
2019-04-27T18:36:18.213Z,100704.00
2019-04-27T18:38:49.219Z,100708.00
2019-04-27T18:41:19.053Z,100707.00
2019-04-27T18:43:52.254Z,100706.00
2019-04-27T18:46:24.448Z,100710.00
2019-04-27T18:48:53.939Z,100712.00
2019-04-27T18:51:38.430Z,100725.00
2019-04-27T18:54:08.218Z,100722.00
2019-04-27T18:56:38.468Z,100721.00
2019-04-27T18:59:08.674Z,100737.00
2019-04-27T19:01:38.155Z,100723.00
2019-04-27T19:04:08.696Z,100723.00
2019-04-27T19:06:39.135Z,100736.00
2019-04-27T19:09:09.090Z,100748.00
2019-04-27T19:11:38.493Z,100738.00
2019-04-27T19:14:08.430Z,100744.00
2019-04-27T19:16:38.479Z,100750.00
2019-04-27T19:19:08.662Z,100745.00
2019-04-27T19:21:39.493Z,100760.00
2019-04-27T19:24:09.252Z,100761.00
2019-04-27T19:26:40.358Z,100771.00
2019-04-27T19:29:11.396Z,100777.00
2019-04-27T19:31:49.993Z,100765.00
2019-04-27T19:34:19.794Z,100776.00
2019-04-27T19:36:49.243Z,100772.00
2019-04-27T19:39:19.037Z,100770.00
2019-04-27T19:41:57.919Z,100772.00
2019-04-27T19:44:20.188Z,100791.00
2019-04-27T19:46:49.604Z,100778.00
2019-04-27T19:49:19.367Z,100783.00
2019-04-27T19:51:49.035Z,100778.00
2019-04-27T19:54:18.431Z,100789.00
2019-04-27T19:56:49.892Z,100783.00
2019-04-27T19:59:20.557Z,100786.00
2019-04-27T20:01:50.934Z,100785.00
2019-04-27T20:04:24.750Z,100784.00
2019-04-27T20:06:54.129Z,100798.00
2019-04-27T20:09:25.165Z,100803.00
2019-04-27T20:11:54.615Z,100806.00
2019-04-27T20:14:23.990Z,100804.00
2019-04-27T20:16:53.487Z,100808.00
2019-04-27T20:19:22.857Z,100815.00
2019-04-27T20:21:52.506Z,100812.00
2019-04-27T20:24:23.018Z,100809.00
2019-04-27T20:26:52.404Z,100812.00
2019-04-27T20:29:21.877Z,100805.00
2019-04-27T20:31:51.363Z,100814.00
2019-04-27T20:34:22.726Z,100812.00
2019-04-27T20:36:52.862Z,100817.00
2019-04-27T20:39:22.731Z,100814.00
2019-04-27T20:41:52.107Z,100802.00
2019-04-27T20:44:21.724Z,100819.00
2019-04-27T20:46:51.420Z,100826.00
2019-04-27T20:49:21.419Z,100821.00
2019-04-27T20:51:53.267Z,100829.00
2019-04-27T20:54:23.853Z,100829.00
2019-04-27T20:56:55.676Z,100826.00
2019-04-27T20:59:24.404Z,100835.00
2019-04-27T21:01:53.840Z,100827.00
2019-04-27T21:04:33.607Z,100830.00
2019-04-27T21:07:08.393Z,100832.00
2019-04-27T21:09:37.776Z,100837.00
2019-04-27T21:12:07.153Z,100839.00
2019-04-27T21:14:36.897Z,100838.00
2019-04-27T21:17:06.267Z,100844.00
2019-04-27T21:19:35.633Z,100833.00
2019-04-27T21:22:05.139Z,100834.00
2019-04-27T21:24:34.507Z,100838.00
2019-04-27T21:27:05.007Z,100836.00
2019-04-27T21:29:34.386Z,100838.00
2019-04-27T21:32:03.764Z,100839.00
2019-04-27T21:34:33.139Z,100835.00
2019-04-27T21:37:03.029Z,100835.00
2019-04-27T21:39:32.324Z,100835.00
2019-04-27T21:42:01.726Z,100834.00
2019-04-27T21:44:31.916Z,100838.00
2019-04-27T21:47:01.370Z,100843.00
2019-04-27T21:49:31.463Z,100838.00
2019-04-27T21:52:02.594Z,100852.00
2019-04-27T21:54:36.474Z,100852.00
2019-04-27T21:57:05.843Z,100860.00
2019-04-27T21:59:35.637Z,100859.00
2019-04-27T22:04:51.707Z,100873.00
2019-04-27T22:07:21.567Z,100866.00
2019-04-27T22:09:51.727Z,100854.00
2019-04-27T22:12:21.361Z,100870.00
2019-04-27T22:14:50.903Z,100870.00
2019-04-27T22:17:21.812Z,100876.00
2019-04-27T22:19:52.391Z,100876.00
2019-04-27T22:22:26.358Z,100870.00
2019-04-27T22:24:57.381Z,100879.00
2019-04-27T22:27:26.755Z,100874.00
2019-04-27T22:29:57.442Z,100876.00
2019-04-27T22:32:26.736Z,100869.00
2019-04-27T22:34:56.497Z,100867.00
2019-04-27T22:37:25.915Z,100862.00
2019-04-27T22:40:13.033Z,100866.00
2019-04-27T22:43:01.599Z,100871.00
2019-04-27T22:45:32.819Z,100873.00
2019-04-27T22:48:02.185Z,100865.00
2019-04-27T22:50:31.558Z,100874.00
2019-04-27T22:53:01.284Z,100872.00
2019-04-27T22:55:31.104Z,100850.00
2019-04-27T22:58:04.840Z,100865.00
2019-04-27T23:00:51.538Z,100876.00
2019-04-27T23:03:31.446Z,100866.00
2019-04-27T23:06:01.374Z,100857.00
2019-04-27T23:08:31.286Z,100861.00
2019-04-27T23:11:02.513Z,100852.00
2019-04-27T23:13:31.915Z,100853.00
2019-04-27T23:16:02.884Z,100859.00
2019-04-27T23:18:32.260Z,100864.00
2019-04-27T23:21:01.688Z,100867.00
2019-04-27T23:23:31.134Z,100875.00
2019-04-27T23:26:01.812Z,100859.00
2019-04-27T23:28:31.436Z,100863.00
2019-04-27T23:31:06.085Z,100863.00
2019-04-27T23:33:36.695Z,100851.00
2019-04-27T23:36:06.266Z,100856.00
2019-04-27T23:38:35.630Z,100857.00
2019-04-27T23:41:04.998Z,100875.00
2019-04-27T23:43:34.370Z,100867.00
2019-04-27T23:46:03.750Z,100865.00
2019-04-27T23:48:33.185Z,100865.00
2019-04-27T23:51:04.164Z,100857.00
2019-04-27T23:53:35.167Z,100866.00
2019-04-27T23:56:04.550Z,100858.00
2019-04-27T23:58:34.320Z,100856.00
